sensor_id;sensor_type;location;lat;lon;timestamp;P1;durP1;ratioP1;P2;durP2;ratioP2
31746;SDS011;18319;48.974;8.462;2022-11-15T00:02:07;5.82;;;4.45;;
31746;SDS011;18319;48.974;8.462;2022-11-15T00:04:34;5.32;;;4.00;;
31746;SDS011;18319;48.974;8.462;2022-11-15T00:07:01;4.75;;;4.35;;
31746;SDS011;18319;48.974;8.462;2022-11-15T00:09:28;6.55;;;4.30;;
31746;SDS011;18319;48.974;8.462;2022-11-15T00:11:57;5.10;;;4.70;;
31746;SDS011;18319;48.974;8.462;2022-11-15T00:14:24;6.60;;;4.57;;
31746;SDS011;18319;48.974;8.462;2022-11-15T00:16:51;4.30;;;3.72;;
31746;SDS011;18319;48.974;8.462;2022-11-15T00:19:18;4.53;;;4.13;;
31746;SDS011;18319;48.974;8.462;2022-11-15T00:21:45;4.55;;;4.15;;
31746;SDS011;18319;48.974;8.462;2022-11-15T00:24:12;5.22;;;4.63;;
31746;SDS011;18319;48.974;8.462;2022-11-15T00:26:39;5.88;;;4.60;;
31746;SDS011;18319;48.974;8.462;2022-11-15T00:29:07;7.53;;;4.60;;
31746;SDS011;18319;48.974;8.462;2022-11-15T00:31:34;5.38;;;4.88;;
31746;SDS011;18319;48.974;8.462;2022-11-15T00:34:02;6.38;;;4.45;;
31746;SDS011;18319;48.974;8.462;2022-11-15T00:36:29;5.15;;;4.65;;
31746;SDS011;18319;48.974;8.462;2022-11-15T00:38:59;4.28;;;3.90;;
31746;SDS011;18319;48.974;8.462;2022-11-15T00:41:26;4.55;;;4.15;;
31746;SDS011;18319;48.974;8.462;2022-11-15T00:43:53;5.80;;;4.45;;
31746;SDS011;18319;48.974;8.462;2022-11-15T00:46:21;6.93;;;4.50;;
31746;SDS011;18319;48.974;8.462;2022-11-15T00:48:48;5.53;;;4.18;;
31746;SDS011;18319;48.974;8.462;2022-11-15T00:51:15;5.32;;;4.45;;
31746;SDS011;18319;48.974;8.462;2022-11-15T00:53:43;5.25;;;4.18;;
31746;SDS011;18319;48.974;8.462;2022-11-15T00:56:10;7.45;;;4.72;;
31746;SDS011;18319;48.974;8.462;2022-11-15T00:58:37;4.70;;;4.00;;
31746;SDS011;18319;48.974;8.462;2022-11-15T01:01:08;5.22;;;4.55;;
31746;SDS011;18319;48.974;8.462;2022-11-15T01:03:37;5.60;;;3.80;;
31746;SDS011;18319;48.974;8.462;2022-11-15T01:06:05;4.57;;;3.55;;
31746;SDS011;18319;48.974;8.462;2022-11-15T01:08:32;7.53;;;4.00;;
31746;SDS011;18319;48.974;8.462;2022-11-15T01:11:00;3.95;;;3.55;;
31746;SDS011;18319;48.974;8.462;2022-11-15T01:13:29;4.93;;;4.53;;
31746;SDS011;18319;48.974;8.462;2022-11-15T01:15:56;5.35;;;3.40;;
31746;SDS011;18319;48.974;8.462;2022-11-15T01:18:23;4.35;;;4.10;;
31746;SDS011;18319;48.974;8.462;2022-11-15T01:20:52;4.95;;;4.55;;
31746;SDS011;18319;48.974;8.462;2022-11-15T01:23:19;5.82;;;4.25;;
31746;SDS011;18319;48.974;8.462;2022-11-15T01:25:46;3.67;;;3.08;;
31746;SDS011;18319;48.974;8.462;2022-11-15T01:28:13;5.28;;;3.42;;
31746;SDS011;18319;48.974;8.462;2022-11-15T01:30:40;3.90;;;3.60;;
31746;SDS011;18319;48.974;8.462;2022-11-15T01:33:07;5.50;;;3.88;;
31746;SDS011;18319;48.974;8.462;2022-11-15T01:35:37;6.47;;;3.63;;
31746;SDS011;18319;48.974;8.462;2022-11-15T01:38:07;3.92;;;3.42;;
31746;SDS011;18319;48.974;8.462;2022-11-15T01:40:36;6.47;;;3.83;;
31746;SDS011;18319;48.974;8.462;2022-11-15T01:45:45;3.63;;;3.38;;
31746;SDS011;18319;48.974;8.462;2022-11-15T01:48:16;4.03;;;3.72;;
31746;SDS011;18319;48.974;8.462;2022-11-15T01:50:43;6.15;;;3.75;;
31746;SDS011;18319;48.974;8.462;2022-11-15T01:53:12;3.03;;;2.83;;
31746;SDS011;18319;48.974;8.462;2022-11-15T01:55:40;3.42;;;3.13;;
31746;SDS011;18319;48.974;8.462;2022-11-15T01:58:07;4.22;;;3.15;;
31746;SDS011;18319;48.974;8.462;2022-11-15T02:00:34;4.35;;;3.40;;
31746;SDS011;18319;48.974;8.462;2022-11-15T02:03:01;4.55;;;3.03;;
31746;SDS011;18319;48.974;8.462;2022-11-15T02:05:28;3.67;;;3.38;;
31746;SDS011;18319;48.974;8.462;2022-11-15T02:07:56;2.90;;;2.70;;
31746;SDS011;18319;48.974;8.462;2022-11-15T02:10:25;3.10;;;2.90;;
31746;SDS011;18319;48.974;8.462;2022-11-15T02:12:52;3.90;;;3.30;;
31746;SDS011;18319;48.974;8.462;2022-11-15T02:15:20;3.22;;;2.90;;
31746;SDS011;18319;48.974;8.462;2022-11-15T02:17:56;3.10;;;2.88;;
31746;SDS011;18319;48.974;8.462;2022-11-15T02:20:35;10.95;;;3.63;;
31746;SDS011;18319;48.974;8.462;2022-11-15T02:23:15;3.65;;;2.90;;
31746;SDS011;18319;48.974;8.462;2022-11-15T02:25:52;5.63;;;2.88;;
31746;SDS011;18319;48.974;8.462;2022-11-15T02:28:28;3.35;;;3.15;;
31746;SDS011;18319;48.974;8.462;2022-11-15T02:31:02;3.28;;;2.53;;
31746;SDS011;18319;48.974;8.462;2022-11-15T02:33:34;3.28;;;2.60;;
31746;SDS011;18319;48.974;8.462;2022-11-15T02:36:02;3.15;;;2.85;;
31746;SDS011;18319;48.974;8.462;2022-11-15T02:38:33;3.42;;;3.05;;
31746;SDS011;18319;48.974;8.462;2022-11-15T02:41:04;4.65;;;3.42;;
31746;SDS011;18319;48.974;8.462;2022-11-15T02:43:35;3.88;;;3.25;;
31746;SDS011;18319;48.974;8.462;2022-11-15T02:46:23;3.53;;;3.22;;
31746;SDS011;18319;48.974;8.462;2022-11-15T02:49:12;3.72;;;3.05;;
31746;SDS011;18319;48.974;8.462;2022-11-15T02:51:40;3.35;;;3.05;;
31746;SDS011;18319;48.974;8.462;2022-11-15T02:54:10;4.72;;;3.00;;
31746;SDS011;18319;48.974;8.462;2022-11-15T02:56:39;3.20;;;2.97;;
31746;SDS011;18319;48.974;8.462;2022-11-15T03:02:08;3.08;;;2.88;;
31746;SDS011;18319;48.974;8.462;2022-11-15T03:04:42;3.22;;;2.97;;
31746;SDS011;18319;48.974;8.462;2022-11-15T03:07:11;5.35;;;3.03;;
31746;SDS011;18319;48.974;8.462;2022-11-15T03:09:40;5.07;;;3.03;;
31746;SDS011;18319;48.974;8.462;2022-11-15T03:12:10;2.90;;;2.70;;
31746;SDS011;18319;48.974;8.462;2022-11-15T03:14:40;3.00;;;2.80;;
31746;SDS011;18319;48.974;8.462;2022-11-15T03:17:13;5.25;;;2.90;;
31746;SDS011;18319;48.974;8.462;2022-11-15T03:19:43;3.03;;;2.72;;
31746;SDS011;18319;48.974;8.462;2022-11-15T03:22:12;3.95;;;2.80;;
31746;SDS011;18319;48.974;8.462;2022-11-15T03:24:40;2.72;;;2.53;;
31746;SDS011;18319;48.974;8.462;2022-11-15T03:27:08;5.70;;;2.58;;
31746;SDS011;18319;48.974;8.462;2022-11-15T03:29:37;3.28;;;3.03;;
31746;SDS011;18319;48.974;8.462;2022-11-15T03:32:06;2.70;;;2.50;;
31746;SDS011;18319;48.974;8.462;2022-11-15T03:34:37;2.58;;;2.38;;
31746;SDS011;18319;48.974;8.462;2022-11-15T03:37:05;2.92;;;2.53;;
31746;SDS011;18319;48.974;8.462;2022-11-15T03:39:32;4.90;;;2.60;;
31746;SDS011;18319;48.974;8.462;2022-11-15T03:42:03;2.72;;;2.17;;
31746;SDS011;18319;48.974;8.462;2022-11-15T03:44:35;2.55;;;2.35;;
31746;SDS011;18319;48.974;8.462;2022-11-15T03:47:09;3.92;;;2.65;;
31746;SDS011;18319;48.974;8.462;2022-11-15T03:49:40;2.35;;;2.25;;
31746;SDS011;18319;48.974;8.462;2022-11-15T03:52:09;2.90;;;2.70;;
31746;SDS011;18319;48.974;8.462;2022-11-15T03:54:38;2.75;;;2.47;;
31746;SDS011;18319;48.974;8.462;2022-11-15T03:57:15;2.80;;;2.60;;
31746;SDS011;18319;48.974;8.462;2022-11-15T03:59:42;3.63;;;2.55;;
31746;SDS011;18319;48.974;8.462;2022-11-15T04:02:10;4.93;;;2.92;;
31746;SDS011;18319;48.974;8.462;2022-11-15T04:04:37;3.97;;;2.25;;
31746;SDS011;18319;48.974;8.462;2022-11-15T04:07:05;2.63;;;2.42;;
31746;SDS011;18319;48.974;8.462;2022-11-15T04:09:32;3.10;;;2.78;;
31746;SDS011;18319;48.974;8.462;2022-11-15T04:12:19;3.03;;;2.67;;
31746;SDS011;18319;48.974;8.462;2022-11-15T04:14:55;3.85;;;2.83;;
31746;SDS011;18319;48.974;8.462;2022-11-15T04:17:34;3.10;;;2.90;;
31746;SDS011;18319;48.974;8.462;2022-11-15T04:20:02;3.08;;;2.80;;
31746;SDS011;18319;48.974;8.462;2022-11-15T04:22:51;4.13;;;2.55;;
31746;SDS011;18319;48.974;8.462;2022-11-15T04:25:36;2.53;;;2.33;;
31746;SDS011;18319;48.974;8.462;2022-11-15T04:28:03;2.95;;;2.65;;
31746;SDS011;18319;48.974;8.462;2022-11-15T04:30:32;2.80;;;2.25;;
31746;SDS011;18319;48.974;8.462;2022-11-15T04:32:59;2.67;;;2.47;;
31746;SDS011;18319;48.974;8.462;2022-11-15T04:35:26;2.85;;;2.40;;
31746;SDS011;18319;48.974;8.462;2022-11-15T04:37:55;4.50;;;2.28;;
31746;SDS011;18319;48.974;8.462;2022-11-15T04:40:21;6.55;;;2.75;;
31746;SDS011;18319;48.974;8.462;2022-11-15T04:42:48;3.03;;;2.03;;
31746;SDS011;18319;48.974;8.462;2022-11-15T04:45:16;2.20;;;2.00;;
31746;SDS011;18319;48.974;8.462;2022-11-15T04:47:43;2.65;;;1.75;;
31746;SDS011;18319;48.974;8.462;2022-11-15T04:50:10;2.80;;;1.88;;
31746;SDS011;18319;48.974;8.462;2022-11-15T04:52:38;1.88;;;1.73;;
31746;SDS011;18319;48.974;8.462;2022-11-15T04:55:07;5.50;;;2.03;;
31746;SDS011;18319;48.974;8.462;2022-11-15T04:57:34;2.35;;;1.90;;
31746;SDS011;18319;48.974;8.462;2022-11-15T05:00:02;2.38;;;2.10;;
31746;SDS011;18319;48.974;8.462;2022-11-15T05:02:29;3.55;;;2.00;;
31746;SDS011;18319;48.974;8.462;2022-11-15T05:05:16;2.70;;;2.50;;
31746;SDS011;18319;48.974;8.462;2022-11-15T05:07:42;2.28;;;2.08;;
31746;SDS011;18319;48.974;8.462;2022-11-15T05:10:11;3.42;;;1.90;;
31746;SDS011;18319;48.974;8.462;2022-11-15T05:12:38;2.47;;;2.08;;
31746;SDS011;18319;48.974;8.462;2022-11-15T05:15:07;2.28;;;2.17;;
31746;SDS011;18319;48.974;8.462;2022-11-15T05:17:34;3.75;;;2.00;;
31746;SDS011;18319;48.974;8.462;2022-11-15T05:20:01;3.25;;;2.30;;
31746;SDS011;18319;48.974;8.462;2022-11-15T05:22:30;1.98;;;1.88;;
31746;SDS011;18319;48.974;8.462;2022-11-15T05:24:57;2.42;;;2.20;;
31746;SDS011;18319;48.974;8.462;2022-11-15T05:27:25;1.88;;;1.77;;
31746;SDS011;18319;48.974;8.462;2022-11-15T05:29:53;3.97;;;2.10;;
31746;SDS011;18319;48.974;8.462;2022-11-15T05:32:20;4.35;;;2.03;;
31746;SDS011;18319;48.974;8.462;2022-11-15T05:34:47;5.43;;;2.63;;
31746;SDS011;18319;48.974;8.462;2022-11-15T05:37:15;4.07;;;2.15;;
31746;SDS011;18319;48.974;8.462;2022-11-15T05:39:43;2.83;;;2.15;;
31746;SDS011;18319;48.974;8.462;2022-11-15T05:42:10;2.75;;;2.55;;
31746;SDS011;18319;48.974;8.462;2022-11-15T05:44:40;2.50;;;2.30;;
31746;SDS011;18319;48.974;8.462;2022-11-15T05:47:08;2.75;;;2.55;;
31746;SDS011;18319;48.974;8.462;2022-11-15T05:49:37;2.47;;;2.28;;
31746;SDS011;18319;48.974;8.462;2022-11-15T05:52:07;2.40;;;2.20;;
31746;SDS011;18319;48.974;8.462;2022-11-15T05:54:35;5.68;;;2.42;;
31746;SDS011;18319;48.974;8.462;2022-11-15T05:57:03;2.80;;;2.60;;
31746;SDS011;18319;48.974;8.462;2022-11-15T05:59:30;2.95;;;2.75;;
31746;SDS011;18319;48.974;8.462;2022-11-15T06:01:59;3.30;;;2.50;;
31746;SDS011;18319;48.974;8.462;2022-11-15T06:04:27;2.67;;;2.47;;
31746;SDS011;18319;48.974;8.462;2022-11-15T06:06:54;3.63;;;2.78;;
31746;SDS011;18319;48.974;8.462;2022-11-15T06:09:21;3.92;;;2.72;;
31746;SDS011;18319;48.974;8.462;2022-11-15T06:11:48;3.33;;;3.08;;
31746;SDS011;18319;48.974;8.462;2022-11-15T06:14:15;7.40;;;3.30;;
31746;SDS011;18319;48.974;8.462;2022-11-15T06:16:43;3.05;;;2.85;;
31746;SDS011;18319;48.974;8.462;2022-11-15T06:19:11;3.25;;;2.80;;
31746;SDS011;18319;48.974;8.462;2022-11-15T06:21:38;2.95;;;2.75;;
31746;SDS011;18319;48.974;8.462;2022-11-15T06:24:05;3.22;;;2.92;;
31746;SDS011;18319;48.974;8.462;2022-11-15T06:26:33;2.88;;;2.47;;
31746;SDS011;18319;48.974;8.462;2022-11-15T06:29:02;6.38;;;3.13;;
31746;SDS011;18319;48.974;8.462;2022-11-15T06:31:35;3.08;;;2.80;;
31746;SDS011;18319;48.974;8.462;2022-11-15T06:34:02;4.72;;;2.70;;
31746;SDS011;18319;48.974;8.462;2022-11-15T06:36:31;3.08;;;2.60;;
31746;SDS011;18319;48.974;8.462;2022-11-15T06:39:00;2.72;;;2.53;;
31746;SDS011;18319;48.974;8.462;2022-11-15T06:41:27;4.53;;;3.10;;
31746;SDS011;18319;48.974;8.462;2022-11-15T06:43:54;3.85;;;2.65;;
31746;SDS011;18319;48.974;8.462;2022-11-15T06:46:21;6.50;;;3.05;;
31746;SDS011;18319;48.974;8.462;2022-11-15T06:48:52;3.10;;;2.72;;
31746;SDS011;18319;48.974;8.462;2022-11-15T06:51:19;3.42;;;3.03;;
31746;SDS011;18319;48.974;8.462;2022-11-15T06:53:48;3.83;;;2.72;;
31746;SDS011;18319;48.974;8.462;2022-11-15T06:56:21;3.97;;;2.70;;
31746;SDS011;18319;48.974;8.462;2022-11-15T06:58:50;3.97;;;3.00;;
31746;SDS011;18319;48.974;8.462;2022-11-15T07:01:18;2.95;;;2.72;;
31746;SDS011;18319;48.974;8.462;2022-11-15T07:03:45;4.13;;;2.90;;
31746;SDS011;18319;48.974;8.462;2022-11-15T07:06:12;2.72;;;2.60;;
31746;SDS011;18319;48.974;8.462;2022-11-15T07:08:40;3.72;;;2.75;;
31746;SDS011;18319;48.974;8.462;2022-11-15T07:11:09;4.57;;;2.95;;
31746;SDS011;18319;48.974;8.462;2022-11-15T07:13:36;3.58;;;3.05;;
31746;SDS011;18319;48.974;8.462;2022-11-15T07:16:04;3.67;;;2.75;;
31746;SDS011;18319;48.974;8.462;2022-11-15T07:18:31;2.63;;;2.42;;
31746;SDS011;18319;48.974;8.462;2022-11-15T07:21:00;2.80;;;2.60;;
31746;SDS011;18319;48.974;8.462;2022-11-15T07:23:28;4.10;;;2.88;;
31746;SDS011;18319;48.974;8.462;2022-11-15T07:25:56;3.13;;;2.88;;
31746;SDS011;18319;48.974;8.462;2022-11-15T07:28:25;4.57;;;4.03;;
31746;SDS011;18319;48.974;8.462;2022-11-15T07:30:52;5.50;;;3.90;;
31746;SDS011;18319;48.974;8.462;2022-11-15T07:33:20;4.55;;;3.05;;
31746;SDS011;18319;48.974;8.462;2022-11-15T07:35:47;3.17;;;2.88;;
31746;SDS011;18319;48.974;8.462;2022-11-15T07:38:15;3.30;;;3.00;;
31746;SDS011;18319;48.974;8.462;2022-11-15T07:40:44;4.20;;;3.25;;
31746;SDS011;18319;48.974;8.462;2022-11-15T07:43:12;2.78;;;2.58;;
31746;SDS011;18319;48.974;8.462;2022-11-15T07:45:41;2.45;;;2.30;;
31746;SDS011;18319;48.974;8.462;2022-11-15T07:48:08;2.58;;;2.38;;
31746;SDS011;18319;48.974;8.462;2022-11-15T07:50:39;3.08;;;2.08;;
31746;SDS011;18319;48.974;8.462;2022-11-15T07:53:07;2.80;;;2.60;;
31746;SDS011;18319;48.974;8.462;2022-11-15T07:55:34;4.13;;;2.45;;
31746;SDS011;18319;48.974;8.462;2022-11-15T07:58:02;7.25;;;3.83;;
31746;SDS011;18319;48.974;8.462;2022-11-15T08:00:30;5.03;;;3.40;;
31746;SDS011;18319;48.974;8.462;2022-11-15T08:03:02;4.45;;;3.25;;
31746;SDS011;18319;48.974;8.462;2022-11-15T08:05:29;2.40;;;2.30;;
31746;SDS011;18319;48.974;8.462;2022-11-15T08:07:57;2.65;;;2.45;;
31746;SDS011;18319;48.974;8.462;2022-11-15T08:10:24;2.70;;;2.50;;
31746;SDS011;18319;48.974;8.462;2022-11-15T08:12:56;2.58;;;2.38;;
31746;SDS011;18319;48.974;8.462;2022-11-15T08:15:27;2.38;;;1.90;;
31746;SDS011;18319;48.974;8.462;2022-11-15T08:17:54;4.63;;;1.98;;
31746;SDS011;18319;48.974;8.462;2022-11-15T08:20:23;2.60;;;2.40;;
31746;SDS011;18319;48.974;8.462;2022-11-15T08:22:50;2.20;;;2.10;;
31746;SDS011;18319;48.974;8.462;2022-11-15T08:25:20;2.50;;;2.30;;
31746;SDS011;18319;48.974;8.462;2022-11-15T08:27:47;2.92;;;2.72;;
31746;SDS011;18319;48.974;8.462;2022-11-15T08:30:15;2.97;;;2.72;;
31746;SDS011;18319;48.974;8.462;2022-11-15T08:32:42;4.40;;;3.63;;
31746;SDS011;18319;48.974;8.462;2022-11-15T08:35:09;5.40;;;3.30;;
31746;SDS011;18319;48.974;8.462;2022-11-15T08:37:37;3.15;;;2.85;;
31746;SDS011;18319;48.974;8.462;2022-11-15T08:40:05;3.80;;;3.13;;
31746;SDS011;18319;48.974;8.462;2022-11-15T08:42:32;5.22;;;3.05;;
31746;SDS011;18319;48.974;8.462;2022-11-15T08:44:59;5.20;;;3.38;;
31746;SDS011;18319;48.974;8.462;2022-11-15T08:47:26;3.47;;;2.75;;
31746;SDS011;18319;48.974;8.462;2022-11-15T08:49:53;3.33;;;2.88;;
31746;SDS011;18319;48.974;8.462;2022-11-15T08:52:20;3.35;;;3.05;;
31746;SDS011;18319;48.974;8.462;2022-11-15T08:54:49;3.88;;;2.97;;
31746;SDS011;18319;48.974;8.462;2022-11-15T08:57:16;6.05;;;3.70;;
31746;SDS011;18319;48.974;8.462;2022-11-15T08:59:43;4.28;;;3.17;;
31746;SDS011;18319;48.974;8.462;2022-11-15T09:02:11;3.08;;;2.78;;
31746;SDS011;18319;48.974;8.462;2022-11-15T09:04:39;3.50;;;3.20;;
31746;SDS011;18319;48.974;8.462;2022-11-15T09:07:07;3.38;;;3.08;;
31746;SDS011;18319;48.974;8.462;2022-11-15T09:09:34;4.18;;;3.15;;
31746;SDS011;18319;48.974;8.462;2022-11-15T09:12:03;4.68;;;4.22;;
31746;SDS011;18319;48.974;8.462;2022-11-15T09:14:30;3.45;;;3.15;;
31746;SDS011;18319;48.974;8.462;2022-11-15T09:16:57;3.35;;;2.90;;
31746;SDS011;18319;48.974;8.462;2022-11-15T09:19:24;4.05;;;3.10;;
31746;SDS011;18319;48.974;8.462;2022-11-15T09:21:52;2.80;;;2.60;;
31746;SDS011;18319;48.974;8.462;2022-11-15T09:24:19;2.97;;;2.60;;
31746;SDS011;18319;48.974;8.462;2022-11-15T09:26:46;2.75;;;2.55;;
31746;SDS011;18319;48.974;8.462;2022-11-15T09:29:14;6.03;;;2.97;;
31746;SDS011;18319;48.974;8.462;2022-11-15T09:31:42;2.80;;;2.60;;
31746;SDS011;18319;48.974;8.462;2022-11-15T09:34:09;4.78;;;2.40;;
31746;SDS011;18319;48.974;8.462;2022-11-15T09:36:36;3.22;;;2.95;;
31746;SDS011;18319;48.974;8.462;2022-11-15T09:39:03;3.58;;;2.70;;
31746;SDS011;18319;48.974;8.462;2022-11-15T09:47:00;5.70;;;3.20;;
31746;SDS011;18319;48.974;8.462;2022-11-15T09:49:29;3.67;;;2.95;;
31746;SDS011;18319;48.974;8.462;2022-11-15T09:51:57;5.18;;;3.17;;
31746;SDS011;18319;48.974;8.462;2022-11-15T09:54:28;4.13;;;2.92;;
31746;SDS011;18319;48.974;8.462;2022-11-15T09:56:56;3.38;;;3.17;;
31746;SDS011;18319;48.974;8.462;2022-11-15T09:59:38;3.53;;;2.92;;
31746;SDS011;18319;48.974;8.462;2022-11-15T10:02:11;3.50;;;3.20;;
31746;SDS011;18319;48.974;8.462;2022-11-15T10:04:40;3.63;;;3.30;;
31746;SDS011;18319;48.974;8.462;2022-11-15T10:07:12;4.18;;;2.90;;
31746;SDS011;18319;48.974;8.462;2022-11-15T10:09:42;3.33;;;3.13;;
31746;SDS011;18319;48.974;8.462;2022-11-15T10:12:10;6.50;;;3.55;;
31746;SDS011;18319;48.974;8.462;2022-11-15T10:14:39;4.80;;;2.97;;
31746;SDS011;18319;48.974;8.462;2022-11-15T10:17:09;6.05;;;3.42;;
31746;SDS011;18319;48.974;8.462;2022-11-15T10:19:45;3.15;;;2.95;;
31746;SDS011;18319;48.974;8.462;2022-11-15T10:22:17;4.43;;;3.53;;
31746;SDS011;18319;48.974;8.462;2022-11-15T10:24:48;6.00;;;3.42;;
31746;SDS011;18319;48.974;8.462;2022-11-15T10:27:17;4.32;;;3.83;;
31746;SDS011;18319;48.974;8.462;2022-11-15T10:29:45;4.32;;;3.45;;
31746;SDS011;18319;48.974;8.462;2022-11-15T10:32:14;4.45;;;3.05;;
31746;SDS011;18319;48.974;8.462;2022-11-15T10:34:41;4.88;;;3.30;;
31746;SDS011;18319;48.974;8.462;2022-11-15T10:37:10;4.38;;;3.90;;
31746;SDS011;18319;48.974;8.462;2022-11-15T10:39:38;4.07;;;3.63;;
31746;SDS011;18319;48.974;8.462;2022-11-15T10:42:15;5.75;;;4.78;;
31746;SDS011;18319;48.974;8.462;2022-11-15T10:44:42;12.55;;;5.30;;
31746;SDS011;18319;48.974;8.462;2022-11-15T10:50:02;7.32;;;5.22;;
31746;SDS011;18319;48.974;8.462;2022-11-15T10:52:31;7.35;;;4.97;;
31746;SDS011;18319;48.974;8.462;2022-11-15T10:55:01;4.75;;;4.22;;
31746;SDS011;18319;48.974;8.462;2022-11-15T10:57:31;5.32;;;3.85;;
31746;SDS011;18319;48.974;8.462;2022-11-15T10:59:59;4.20;;;3.80;;
31746;SDS011;18319;48.974;8.462;2022-11-15T11:02:28;4.38;;;4.00;;
31746;SDS011;18319;48.974;8.462;2022-11-15T11:04:56;3.72;;;3.42;;
31746;SDS011;18319;48.974;8.462;2022-11-15T11:07:24;4.25;;;3.85;;
31746;SDS011;18319;48.974;8.462;2022-11-15T11:09:57;4.60;;;4.18;;
31746;SDS011;18319;48.974;8.462;2022-11-15T11:12:28;3.22;;;3.00;;
31746;SDS011;18319;48.974;8.462;2022-11-15T11:14:57;3.50;;;3.20;;
31746;SDS011;18319;48.974;8.462;2022-11-15T11:17:27;3.63;;;2.72;;
31746;SDS011;18319;48.974;8.462;2022-11-15T11:19:59;2.83;;;2.40;;
31746;SDS011;18319;48.974;8.462;2022-11-15T11:22:30;2.38;;;2.17;;
31746;SDS011;18319;48.974;8.462;2022-11-15T11:25:05;4.82;;;2.42;;
31746;SDS011;18319;48.974;8.462;2022-11-15T11:27:36;3.20;;;3.00;;
31746;SDS011;18319;48.974;8.462;2022-11-15T11:30:07;4.10;;;2.90;;
31746;SDS011;18319;48.974;8.462;2022-11-15T11:35:22;3.33;;;2.83;;
31746;SDS011;18319;48.974;8.462;2022-11-15T11:37:51;2.60;;;2.40;;
31746;SDS011;18319;48.974;8.462;2022-11-15T11:40:29;2.25;;;2.15;;
31746;SDS011;18319;48.974;8.462;2022-11-15T11:42:59;2.45;;;2.10;;
31746;SDS011;18319;48.974;8.462;2022-11-15T11:45:47;2.75;;;2.55;;
31746;SDS011;18319;48.974;8.462;2022-11-15T11:48:19;2.80;;;2.60;;
31746;SDS011;18319;48.974;8.462;2022-11-15T11:50:48;2.78;;;2.55;;
31746;SDS011;18319;48.974;8.462;2022-11-15T11:53:17;2.58;;;2.38;;
31746;SDS011;18319;48.974;8.462;2022-11-15T11:55:51;3.45;;;2.47;;
31746;SDS011;18319;48.974;8.462;2022-11-15T11:58:20;4.95;;;2.33;;
31746;SDS011;18319;48.974;8.462;2022-11-15T12:00:49;2.75;;;2.55;;
31746;SDS011;18319;48.974;8.462;2022-11-15T12:03:19;4.43;;;2.80;;
31746;SDS011;18319;48.974;8.462;2022-11-15T12:05:50;3.20;;;2.90;;
31746;SDS011;18319;48.974;8.462;2022-11-15T12:08:22;3.58;;;2.40;;
31746;SDS011;18319;48.974;8.462;2022-11-15T12:10:52;6.43;;;2.83;;
31746;SDS011;18319;48.974;8.462;2022-11-15T12:13:21;3.45;;;2.88;;
31746;SDS011;18319;48.974;8.462;2022-11-15T12:15:53;3.33;;;2.75;;
31746;SDS011;18319;48.974;8.462;2022-11-15T12:18:23;5.03;;;3.53;;
31746;SDS011;18319;48.974;8.462;2022-11-15T12:20:51;2.85;;;2.65;;
31746;SDS011;18319;48.974;8.462;2022-11-15T12:23:20;3.38;;;3.05;;
31746;SDS011;18319;48.974;8.462;2022-11-15T12:25:49;3.75;;;3.45;;
31746;SDS011;18319;48.974;8.462;2022-11-15T12:28:20;3.35;;;2.67;;
31746;SDS011;18319;48.974;8.462;2022-11-15T12:30:52;4.53;;;3.08;;
31746;SDS011;18319;48.974;8.462;2022-11-15T12:33:31;3.95;;;3.15;;
31746;SDS011;18319;48.974;8.462;2022-11-15T12:36:00;4.18;;;3.42;;
31746;SDS011;18319;48.974;8.462;2022-11-15T12:41:12;4.10;;;2.78;;
31746;SDS011;18319;48.974;8.462;2022-11-15T12:43:41;3.20;;;2.92;;
31746;SDS011;18319;48.974;8.462;2022-11-15T12:46:13;3.28;;;2.97;;
31746;SDS011;18319;48.974;8.462;2022-11-15T12:48:52;3.05;;;2.83;;
31746;SDS011;18319;48.974;8.462;2022-11-15T12:51:20;2.95;;;2.70;;
31746;SDS011;18319;48.974;8.462;2022-11-15T12:53:48;2.75;;;2.55;;
31746;SDS011;18319;48.974;8.462;2022-11-15T12:56:21;3.10;;;2.78;;
31746;SDS011;18319;48.974;8.462;2022-11-15T12:58:51;2.78;;;2.58;;
31746;SDS011;18319;48.974;8.462;2022-11-15T13:04:08;3.22;;;3.03;;
31746;SDS011;18319;48.974;8.462;2022-11-15T13:06:39;2.63;;;2.42;;
31746;SDS011;18319;48.974;8.462;2022-11-15T13:11:52;3.25;;;2.60;;
31746;SDS011;18319;48.974;8.462;2022-11-15T13:14:40;2.88;;;2.67;;
31746;SDS011;18319;48.974;8.462;2022-11-15T13:17:24;2.60;;;2.40;;
31746;SDS011;18319;48.974;8.462;2022-11-15T13:19:57;3.75;;;2.63;;
31746;SDS011;18319;48.974;8.462;2022-11-15T13:22:25;2.50;;;2.30;;
31746;SDS011;18319;48.974;8.462;2022-11-15T13:25:14;2.60;;;2.40;;
31746;SDS011;18319;48.974;8.462;2022-11-15T13:27:44;9.77;;;5.38;;
31746;SDS011;18319;48.974;8.462;2022-11-15T13:30:14;7.45;;;3.80;;
31746;SDS011;18319;48.974;8.462;2022-11-15T13:32:42;2.85;;;1.95;;
31746;SDS011;18319;48.974;8.462;2022-11-15T13:35:09;2.70;;;2.50;;
31746;SDS011;18319;48.974;8.462;2022-11-15T13:37:36;7.35;;;4.93;;
31746;SDS011;18319;48.974;8.462;2022-11-15T13:40:16;4.20;;;2.47;;
31746;SDS011;18319;48.974;8.462;2022-11-15T13:42:45;2.90;;;1.63;;
31746;SDS011;18319;48.974;8.462;2022-11-15T13:45:13;2.50;;;1.95;;
31746;SDS011;18319;48.974;8.462;2022-11-15T13:47:42;2.50;;;2.00;;
31746;SDS011;18319;48.974;8.462;2022-11-15T13:50:10;2.28;;;2.08;;
31746;SDS011;18319;48.974;8.462;2022-11-15T13:52:37;2.03;;;1.90;;
31746;SDS011;18319;48.974;8.462;2022-11-15T13:55:09;2.22;;;2.10;;
31746;SDS011;18319;48.974;8.462;2022-11-15T13:57:39;2.30;;;2.03;;
31746;SDS011;18319;48.974;8.462;2022-11-15T14:00:23;2.08;;;1.40;;
31746;SDS011;18319;48.974;8.462;2022-11-15T14:02:52;2.80;;;1.95;;
31746;SDS011;18319;48.974;8.462;2022-11-15T14:05:21;3.55;;;2.15;;
31746;SDS011;18319;48.974;8.462;2022-11-15T14:07:55;7.03;;;5.63;;
31746;SDS011;18319;48.974;8.462;2022-11-15T14:10:27;8.68;;;7.97;;
31746;SDS011;18319;48.974;8.462;2022-11-15T14:12:55;4.47;;;4.13;;
31746;SDS011;18319;48.974;8.462;2022-11-15T14:15:27;3.42;;;3.13;;
31746;SDS011;18319;48.974;8.462;2022-11-15T14:17:56;5.13;;;3.85;;
31746;SDS011;18319;48.974;8.462;2022-11-15T14:20:27;5.35;;;3.20;;
31746;SDS011;18319;48.974;8.462;2022-11-15T14:22:56;4.93;;;3.30;;
31746;SDS011;18319;48.974;8.462;2022-11-15T14:25:23;5.82;;;3.47;;
31746;SDS011;18319;48.974;8.462;2022-11-15T14:28:12;2.83;;;2.63;;
31746;SDS011;18319;48.974;8.462;2022-11-15T14:30:40;3.42;;;3.13;;
31746;SDS011;18319;48.974;8.462;2022-11-15T14:33:22;3.65;;;3.17;;
31746;SDS011;18319;48.974;8.462;2022-11-15T14:35:49;4.50;;;2.80;;
31746;SDS011;18319;48.974;8.462;2022-11-15T14:38:16;3.95;;;2.83;;
31746;SDS011;18319;48.974;8.462;2022-11-15T14:40:44;6.15;;;3.85;;
31746;SDS011;18319;48.974;8.462;2022-11-15T14:43:11;6.10;;;3.58;;
31746;SDS011;18319;48.974;8.462;2022-11-15T14:45:39;4.13;;;3.67;;
31746;SDS011;18319;48.974;8.462;2022-11-15T14:48:06;4.20;;;3.50;;
31746;SDS011;18319;48.974;8.462;2022-11-15T14:50:34;8.20;;;3.72;;
31746;SDS011;18319;48.974;8.462;2022-11-15T14:53:02;3.63;;;3.20;;
31746;SDS011;18319;48.974;8.462;2022-11-15T14:55:30;4.13;;;2.92;;
31746;SDS011;18319;48.974;8.462;2022-11-15T14:58:00;3.53;;;3.03;;
31746;SDS011;18319;48.974;8.462;2022-11-15T15:00:28;4.32;;;3.45;;
31746;SDS011;18319;48.974;8.462;2022-11-15T15:02:55;3.22;;;3.03;;
31746;SDS011;18319;48.974;8.462;2022-11-15T15:05:23;5.28;;;3.38;;
31746;SDS011;18319;48.974;8.462;2022-11-15T15:07:52;2.97;;;2.78;;
31746;SDS011;18319;48.974;8.462;2022-11-15T15:10:19;3.50;;;2.80;;
31746;SDS011;18319;48.974;8.462;2022-11-15T15:12:46;8.75;;;3.13;;
31746;SDS011;18319;48.974;8.462;2022-11-15T15:15:14;6.85;;;3.33;;
31746;SDS011;18319;48.974;8.462;2022-11-15T15:17:41;5.15;;;2.63;;
31746;SDS011;18319;48.974;8.462;2022-11-15T15:20:09;3.83;;;3.08;;
31746;SDS011;18319;48.974;8.462;2022-11-15T15:22:36;3.00;;;2.78;;
31746;SDS011;18319;48.974;8.462;2022-11-15T15:25:09;4.93;;;3.63;;
31746;SDS011;18319;48.974;8.462;2022-11-15T15:27:41;5.10;;;3.28;;